createdAt,value
2023-01-24T00:01:07.205Z,100.00
2023-01-24T00:03:50.588Z,100.00
2023-01-24T00:06:26.582Z,100.00
2023-01-24T00:09:04.524Z,100.00
2023-01-24T00:11:37.183Z,100.00
2023-01-24T00:14:09.932Z,100.00
2023-01-24T00:16:49.995Z,100.00
2023-01-24T00:19:31.142Z,100.00
2023-01-24T00:22:11.669Z,100.00
2023-01-24T00:24:49.603Z,100.00
2023-01-24T00:27:36.062Z,100.00
2023-01-24T00:30:12.291Z,100.00
2023-01-24T00:32:47.186Z,100.00
2023-01-24T00:35:22.182Z,100.00
2023-01-24T00:38:06.064Z,100.00
2023-01-24T00:40:41.489Z,100.00
2023-01-24T00:43:20.573Z,100.00
2023-01-24T00:45:56.129Z,100.00
2023-01-24T00:48:34.361Z,100.00
2023-01-24T00:51:12.683Z,100.00
2023-01-24T00:53:54.135Z,100.00
2023-01-24T00:56:34.765Z,100.00
2023-01-24T00:59:12.126Z,100.00
2023-01-24T01:01:49.676Z,100.00
2023-01-24T01:04:25.197Z,100.00
2023-01-24T01:07:05.262Z,100.00
2023-01-24T01:09:42.268Z,100.00
2023-01-24T01:12:14.531Z,100.00
2023-01-24T01:14:48.039Z,100.00
2023-01-24T01:17:23.992Z,100.00
2023-01-24T01:19:59.810Z,100.00
2023-01-24T01:22:47.881Z,100.00
2023-01-24T01:25:28.368Z,100.00
2023-01-24T01:28:06.511Z,100.00
2023-01-24T01:30:48.162Z,100.00
2023-01-24T01:33:26.092Z,100.00
2023-01-24T01:36:04.804Z,100.00
2023-01-24T01:38:37.445Z,100.00
2023-01-24T01:41:18.242Z,100.00
2023-01-24T01:44:06.716Z,100.00
2023-01-24T01:46:51.333Z,100.00
2023-01-24T01:49:35.049Z,100.00
2023-01-24T01:52:08.164Z,100.00
2023-01-24T01:54:48.434Z,100.00
2023-01-24T01:57:28.924Z,100.00
2023-01-24T02:00:04.882Z,100.00
2023-01-24T02:02:51.081Z,100.00
2023-01-24T02:05:29.102Z,100.00
2023-01-24T02:08:04.746Z,100.00
2023-01-24T02:10:55.755Z,100.00
2023-01-24T02:13:36.071Z,100.00
2023-01-24T02:16:11.503Z,100.00
2023-01-24T02:18:50.984Z,100.00
2023-01-24T02:21:28.541Z,100.00
2023-01-24T02:24:18.388Z,100.00
2023-01-24T02:26:55.379Z,100.00
2023-01-24T02:29:34.048Z,100.00
2023-01-24T02:32:22.309Z,100.00
2023-01-24T02:34:52.910Z,100.00
2023-01-24T02:37:39.216Z,100.00
2023-01-24T02:40:16.952Z,100.00
2023-01-24T02:42:49.523Z,100.00
2023-01-24T02:45:29.156Z,100.00
2023-01-24T02:48:10.041Z,100.00
2023-01-24T02:51:01.774Z,100.00
2023-01-24T02:53:42.399Z,100.00
2023-01-24T02:56:32.979Z,100.00
2023-01-24T02:59:09.031Z,100.00
2023-01-24T03:01:48.090Z,100.00
2023-01-24T03:04:30.418Z,100.00
2023-01-24T03:07:06.039Z,100.00
2023-01-24T03:09:47.996Z,100.00
2023-01-24T03:12:41.122Z,100.00
2023-01-24T03:15:32.224Z,100.00
2023-01-24T03:18:18.469Z,100.00
2023-01-24T03:21:10.579Z,100.00
2023-01-24T03:24:02.437Z,100.00
2023-01-24T03:26:53.821Z,100.00
2023-01-24T03:29:43.833Z,100.00
2023-01-24T03:32:36.201Z,100.00
2023-01-24T03:35:08.758Z,100.00
2023-01-24T03:38:00.508Z,100.00
2023-01-24T03:40:41.688Z,100.00
2023-01-24T03:43:16.443Z,100.00
2023-01-24T03:45:46.953Z,100.00
2023-01-24T03:48:37.805Z,100.00
2023-01-24T03:51:31.207Z,100.00
2023-01-24T03:54:15.847Z,100.00
2023-01-24T03:57:03.402Z,100.00
2023-01-24T03:59:39.084Z,100.00
2023-01-24T04:02:17.285Z,100.00
2023-01-24T04:05:07.708Z,100.00
2023-01-24T04:07:43.001Z,100.00
2023-01-24T04:10:20.663Z,100.00
2023-01-24T04:13:03.235Z,100.00
2023-01-24T04:15:39.638Z,100.00
2023-01-24T04:18:34.774Z,100.00
2023-01-24T04:21:18.211Z,100.00
2023-01-24T04:23:53.773Z,100.00
2023-01-24T04:26:30.038Z,100.00
2023-01-24T04:29:03.141Z,100.00
2023-01-24T04:31:38.367Z,100.00
2023-01-24T04:34:38.998Z,100.00
2023-01-24T04:37:23.225Z,100.00
2023-01-24T04:40:04.116Z,100.00
2023-01-24T04:42:38.346Z,100.00
2023-01-24T04:45:16.847Z,100.00
2023-01-24T04:47:54.048Z,100.00
2023-01-24T04:50:39.016Z,100.00
2023-01-24T04:53:21.753Z,100.00
2023-01-24T04:56:05.671Z,100.00
2023-01-24T04:58:43.263Z,100.00
2023-01-24T05:01:16.025Z,100.00
2023-01-24T05:04:03.931Z,100.00
2023-01-24T05:06:39.492Z,100.00
2023-01-24T05:09:18.653Z,100.00
2023-01-24T05:12:05.680Z,100.00
2023-01-24T05:14:40.259Z,100.00
2023-01-24T05:17:20.190Z,100.00
2023-01-24T05:19:56.248Z,100.00
2023-01-24T05:22:34.992Z,100.00
2023-01-24T05:25:08.191Z,100.00
2023-01-24T05:27:50.089Z,100.00
2023-01-24T05:30:20.025Z,100.00
2023-01-24T05:33:02.486Z,100.00
2023-01-24T05:35:40.067Z,100.00
2023-01-24T05:38:17.951Z,100.00
2023-01-24T05:40:53.908Z,100.00
2023-01-24T05:43:29.351Z,100.00
2023-01-24T05:46:13.435Z,100.00
2023-01-24T05:48:55.001Z,100.00
2023-01-24T05:51:25.877Z,100.00
2023-01-24T05:54:12.131Z,100.00
2023-01-24T05:57:08.379Z,100.00
2023-01-24T06:00:07.396Z,100.00
2023-01-24T06:02:49.190Z,100.00
2023-01-24T06:05:24.633Z,100.00
2023-01-24T06:08:02.476Z,100.00
2023-01-24T06:10:43.220Z,100.00
2023-01-24T06:13:17.410Z,100.00
2023-01-24T06:16:01.076Z,100.00
2023-01-24T06:18:37.889Z,100.00
2023-01-24T06:21:25.205Z,100.00
2023-01-24T06:24:02.369Z,100.00
2023-01-24T06:26:55.249Z,100.00
2023-01-24T06:29:30.707Z,100.00
2023-01-24T06:32:20.112Z,100.00
2023-01-24T06:35:37.940Z,100.00
2023-01-24T06:38:26.017Z,100.00
2023-01-24T06:41:07.259Z,100.00
2023-01-24T06:43:42.374Z,100.00
2023-01-24T06:46:23.783Z,100.00
2023-01-24T06:48:56.835Z,100.00
2023-01-24T06:51:34.776Z,100.00
2023-01-24T06:54:14.047Z,100.00
2023-01-24T06:56:49.284Z,100.00
2023-01-24T06:59:29.478Z,100.00
2023-01-24T07:01:56.411Z,100.00
2023-01-24T07:04:33.074Z,100.00
2023-01-24T07:07:08.660Z,100.00
2023-01-24T07:09:44.008Z,100.00
2023-01-24T07:12:28.066Z,100.00
2023-01-24T07:15:08.391Z,100.00
2023-01-24T07:17:43.582Z,100.00
2023-01-24T07:20:21.280Z,100.00
2023-01-24T07:22:57.278Z,100.00
2023-01-24T07:25:38.912Z,100.00
2023-01-24T07:28:16.948Z,100.00
2023-01-24T07:30:52.504Z,100.00
2023-01-24T07:33:24.989Z,100.00
2023-01-24T07:36:14.535Z,100.00
2023-01-24T07:38:48.371Z,100.00
2023-01-24T07:41:29.218Z,100.00
2023-01-24T07:44:07.057Z,100.00
2023-01-24T07:46:40.216Z,100.00
2023-01-24T07:49:12.593Z,100.00
2023-01-24T07:51:49.998Z,100.00
2023-01-24T07:54:30.750Z,100.00
2023-01-24T07:57:07.044Z,100.00
2023-01-24T07:59:41.402Z,100.00
2023-01-24T08:02:15.281Z,100.00
2023-01-24T08:04:45.135Z,100.00
2023-01-24T08:07:30.042Z,100.00
2023-01-24T08:10:08.666Z,100.00
2023-01-24T08:12:41.342Z,100.00
2023-01-24T08:15:20.533Z,100.00
2023-01-24T08:18:05.054Z,100.00
2023-01-24T08:20:40.658Z,100.00
2023-01-24T08:23:16.138Z,100.00
2023-01-24T08:25:53.537Z,100.00
2023-01-24T08:28:31.042Z,100.00
2023-01-24T08:31:08.921Z,100.00
2023-01-24T08:33:50.139Z,100.00
2023-01-24T08:36:30.796Z,100.00
2023-01-24T08:39:06.765Z,100.00
2023-01-24T08:41:37.030Z,100.00
2023-01-24T08:44:13.187Z,100.00
2023-01-24T08:46:48.578Z,100.00
2023-01-24T08:49:21.282Z,100.00
2023-01-24T08:52:00.234Z,100.00
2023-01-24T08:54:36.982Z,100.00
2023-01-24T08:57:17.029Z,100.00
2023-01-24T08:59:52.467Z,100.00
2023-01-24T09:02:36.048Z,100.00
2023-01-24T09:05:15.449Z,100.00
2023-01-24T09:07:50.602Z,100.00
2023-01-24T09:10:27.680Z,100.00
2023-01-24T09:13:10.200Z,100.00
2023-01-24T09:15:46.169Z,100.00
2023-01-24T09:18:24.599Z,100.00
2023-01-24T09:21:06.110Z,100.00
2023-01-24T09:23:44.186Z,100.00
2023-01-24T09:26:30.698Z,100.00
2023-01-24T09:29:03.233Z,100.00
2023-01-24T09:31:41.408Z,100.00
2023-01-24T09:34:17.448Z,100.00
2023-01-24T09:36:57.053Z,100.00
2023-01-24T09:39:39.170Z,100.00
2023-01-24T09:42:45.125Z,100.00
2023-01-24T09:45:36.507Z,100.00
2023-01-24T09:48:32.941Z,100.00
2023-01-24T09:51:19.985Z,100.00
2023-01-24T09:53:58.568Z,100.00
2023-01-24T09:56:47.656Z,100.00
2023-01-24T09:59:38.968Z,100.00
2023-01-24T10:02:25.891Z,100.00
2023-01-24T10:05:06.265Z,100.00
2023-01-24T10:07:58.782Z,100.00
2023-01-24T10:10:44.661Z,100.00
2023-01-24T10:13:51.768Z,100.00
2023-01-24T10:16:49.118Z,100.00
2023-01-24T10:19:30.432Z,100.00
2023-01-24T10:22:19.648Z,100.00
2023-01-24T10:24:59.582Z,100.00
2023-01-24T10:27:35.031Z,100.00
2023-01-24T10:30:18.435Z,100.00
2023-01-24T10:33:01.512Z,100.00
2023-01-24T10:35:57.830Z,100.00
2023-01-24T10:38:35.970Z,100.00
2023-01-24T10:41:21.881Z,100.00
2023-01-24T10:44:09.824Z,100.00
2023-01-24T10:47:19.666Z,100.00
2023-01-24T10:50:08.155Z,100.00
2023-01-24T10:52:43.896Z,100.00
2023-01-24T10:55:36.301Z,100.00
2023-01-24T10:58:25.301Z,100.00
2023-01-24T11:01:19.125Z,100.00
2023-01-24T11:03:51.237Z,100.00
2023-01-24T11:06:37.988Z,100.00
2023-01-24T11:09:26.222Z,100.00
2023-01-24T11:12:07.225Z,100.00
2023-01-24T11:14:50.573Z,100.00
2023-01-24T11:17:45.805Z,100.00
2023-01-24T11:20:22.926Z,100.00
2023-01-24T11:23:25.380Z,100.00
2023-01-24T11:26:10.995Z,100.00
2023-01-24T11:28:56.162Z,100.00
2023-01-24T11:31:58.811Z,100.00
2023-01-24T11:34:53.098Z,100.00
2023-01-24T11:37:37.613Z,100.00
2023-01-24T11:40:41.781Z,100.00
2023-01-24T11:43:32.548Z,100.00
2023-01-24T11:46:22.957Z,100.00
2023-01-24T11:49:13.613Z,100.00
2023-01-24T11:52:06.235Z,100.00
2023-01-24T11:55:06.434Z,100.00
2023-01-24T11:58:17.222Z,100.00
2023-01-24T12:01:23.920Z,100.00
2023-01-24T12:04:38.149Z,100.00
2023-01-24T12:07:23.155Z,100.00
2023-01-24T12:10:27.623Z,100.00
2023-01-24T12:13:19.513Z,100.00
2023-01-24T12:16:29.235Z,100.00
2023-01-24T12:19:34.168Z,100.00
2023-01-24T12:22:17.170Z,99.01
2023-01-24T12:24:51.741Z,97.23
2023-01-24T12:27:35.680Z,97.65
2023-01-24T12:30:17.130Z,95.33
2023-01-24T12:33:03.478Z,93.55
2023-01-24T12:35:43.381Z,94.19
2023-01-24T12:38:33.363Z,90.26
2023-01-24T12:41:17.483Z,97.12
2023-01-24T12:44:43.788Z,92.79
2023-01-24T12:47:29.532Z,91.26
2023-01-24T12:50:46.223Z,91.78
2023-01-24T12:53:33.826Z,89.83
2023-01-24T12:56:13.108Z,92.17
2023-01-24T12:58:52.455Z,89.70
2023-01-24T13:01:40.600Z,87.67
2023-01-24T13:04:35.877Z,87.63
2023-01-24T13:07:44.287Z,88.16
2023-01-24T13:10:28.505Z,89.30
2023-01-24T13:13:09.039Z,88.38
2023-01-24T13:16:09.933Z,89.77
2023-01-24T13:18:47.709Z,91.06
2023-01-24T13:21:41.188Z,88.74
2023-01-24T13:24:34.043Z,86.90
2023-01-24T13:27:18.328Z,87.97
2023-01-24T13:29:58.919Z,89.29
2023-01-24T13:32:45.850Z,88.10
2023-01-24T13:35:25.940Z,88.11
2023-01-24T13:38:09.647Z,88.67
2023-01-24T13:40:45.015Z,87.90
2023-01-24T13:43:49.719Z,87.98
2023-01-24T13:47:09.410Z,88.41
2023-01-24T13:50:05.100Z,88.76
2023-01-24T13:52:55.198Z,88.91
2023-01-24T13:55:50.841Z,89.25
2023-01-24T13:58:35.473Z,89.00
2023-01-24T14:01:18.638Z,89.70
2023-01-24T14:04:03.435Z,89.24
2023-01-24T14:06:58.359Z,91.51
2023-01-24T14:09:35.999Z,90.73
2023-01-24T14:12:09.860Z,90.89
2023-01-24T14:15:06.293Z,89.87
2023-01-24T14:17:49.537Z,91.61
2023-01-24T14:20:45.505Z,93.18
2023-01-24T14:23:27.163Z,92.12
2023-01-24T14:26:06.653Z,93.09
2023-01-24T14:28:53.947Z,93.01
2023-01-24T14:31:34.295Z,93.24
2023-01-24T14:34:39.617Z,94.44
2023-01-24T14:37:25.508Z,93.97
2023-01-24T14:40:35.333Z,96.45
2023-01-24T14:43:35.525Z,97.11
2023-01-24T14:46:26.986Z,98.98
2023-01-24T14:49:12.972Z,100.00
2023-01-24T14:51:57.311Z,100.00
2023-01-24T14:54:42.092Z,100.00
2023-01-24T14:57:36.933Z,100.00
2023-01-24T15:00:23.347Z,100.00
2023-01-24T15:03:03.197Z,100.00
2023-01-24T15:05:55.832Z,100.00
2023-01-24T15:08:35.136Z,100.00
2023-01-24T15:11:28.614Z,100.00
2023-01-24T15:14:24.691Z,100.00
2023-01-24T15:17:02.752Z,100.00
2023-01-24T15:19:42.658Z,100.00
2023-01-24T15:22:27.577Z,100.00
2023-01-24T15:25:26.012Z,100.00
2023-01-24T15:28:14.763Z,100.00
2023-01-24T15:31:03.748Z,100.00
2023-01-24T15:33:50.013Z,100.00
2023-01-24T15:36:35.654Z,100.00
2023-01-24T15:39:28.305Z,100.00
2023-01-24T15:42:24.899Z,100.00
2023-01-24T15:44:57.102Z,100.00
2023-01-24T15:47:48.760Z,100.00
2023-01-24T15:50:48.267Z,100.00
2023-01-24T15:53:33.569Z,100.00
2023-01-24T15:56:15.219Z,100.00
2023-01-24T15:58:55.307Z,100.00
2023-01-24T16:01:31.469Z,100.00
2023-01-24T16:04:26.476Z,100.00
2023-01-24T16:07:04.594Z,100.00
2023-01-24T16:09:37.616Z,100.00
2023-01-24T16:12:21.167Z,100.00
2023-01-24T16:15:08.707Z,100.00
2023-01-24T16:17:47.206Z,100.00
2023-01-24T16:20:34.992Z,100.00
2023-01-24T16:23:15.410Z,100.00
2023-01-24T16:25:54.391Z,100.00
2023-01-24T16:28:24.794Z,100.00
2023-01-24T16:31:05.769Z,100.00
2023-01-24T16:33:53.980Z,100.00
2023-01-24T16:36:35.255Z,100.00
2023-01-24T16:39:13.828Z,100.00
2023-01-24T16:41:51.150Z,100.00
2023-01-24T16:44:35.324Z,100.00
2023-01-24T16:47:13.841Z,100.00
2023-01-24T16:49:51.951Z,100.00
2023-01-24T16:52:35.123Z,100.00
2023-01-24T16:55:08.176Z,100.00
2023-01-24T16:57:48.755Z,100.00
2023-01-24T17:00:40.711Z,100.00
2023-01-24T17:03:25.696Z,100.00
2023-01-24T17:06:01.247Z,100.00
2023-01-24T17:08:50.329Z,100.00
2023-01-24T17:11:28.596Z,100.00
2023-01-24T17:14:06.878Z,100.00
2023-01-24T17:16:52.987Z,100.00
2023-01-24T17:19:33.981Z,100.00
2023-01-24T17:22:07.215Z,100.00
2023-01-24T17:24:45.202Z,100.00
2023-01-24T17:27:37.551Z,100.00
2023-01-24T17:30:10.996Z,100.00
2023-01-24T17:32:51.637Z,100.00
2023-01-24T17:35:26.333Z,100.00
2023-01-24T17:38:03.330Z,100.00
2023-01-24T17:40:46.506Z,100.00
2023-01-24T17:43:32.767Z,100.00
2023-01-24T17:46:19.403Z,100.00
2023-01-24T17:48:59.324Z,100.00
2023-01-24T17:51:37.353Z,100.00
2023-01-24T17:54:19.278Z,100.00
2023-01-24T17:56:54.049Z,100.00
2023-01-24T17:59:31.459Z,100.00
2023-01-24T18:02:15.075Z,100.00
2023-01-24T18:04:56.294Z,100.00
2023-01-24T18:07:33.299Z,100.00
2023-01-24T18:10:13.047Z,100.00
2023-01-24T18:12:51.802Z,100.00
2023-01-24T18:15:25.032Z,100.00
2023-01-24T18:18:12.764Z,100.00
2023-01-24T18:20:50.393Z,100.00
2023-01-24T18:23:31.317Z,100.00
2023-01-24T18:26:10.061Z,100.00
2023-01-24T18:28:52.968Z,100.00
2023-01-24T18:31:34.899Z,100.00
2023-01-24T18:34:15.610Z,100.00
2023-01-24T18:36:50.464Z,100.00
2023-01-24T18:39:31.199Z,100.00
2023-01-24T18:42:14.312Z,100.00
2023-01-24T18:44:48.946Z,100.00
2023-01-24T18:47:35.392Z,100.00
2023-01-24T18:50:19.126Z,100.00
2023-01-24T18:52:55.484Z,100.00
2023-01-24T18:55:30.888Z,100.00
2023-01-24T18:58:04.129Z,100.00
2023-01-24T19:00:42.641Z,100.00
2023-01-24T19:03:18.760Z,100.00
2023-01-24T19:06:02.139Z,100.00
2023-01-24T19:09:00.447Z,100.00
2023-01-24T19:11:46.146Z,100.00
2023-01-24T19:14:32.708Z,100.00
2023-01-24T19:17:18.238Z,100.00
2023-01-24T19:19:53.366Z,100.00
2023-01-24T19:22:34.607Z,100.00
2023-01-24T19:25:13.413Z,100.00
2023-01-24T19:27:57.542Z,100.00
2023-01-24T19:30:43.478Z,100.00
2023-01-24T19:33:19.972Z,100.00
2023-01-24T19:36:04.059Z,100.00
2023-01-24T19:38:42.274Z,100.00
2023-01-24T19:41:25.730Z,100.00
2023-01-24T19:44:19.171Z,100.00
2023-01-24T19:47:07.862Z,100.00
2023-01-24T19:49:46.495Z,100.00
2023-01-24T19:52:27.279Z,100.00
2023-01-24T19:55:10.867Z,100.00
2023-01-24T19:57:54.509Z,100.00
2023-01-24T20:00:31.995Z,100.00
2023-01-24T20:03:06.705Z,100.00
2023-01-24T20:05:41.877Z,100.00
2023-01-24T20:08:20.209Z,100.00
2023-01-24T20:10:52.714Z,100.00
2023-01-24T20:13:31.451Z,100.00
2023-01-24T20:16:19.631Z,100.00
2023-01-24T20:19:10.969Z,100.00
2023-01-24T20:22:04.289Z,100.00
2023-01-24T20:24:48.317Z,100.00
2023-01-24T20:27:36.732Z,100.00
2023-01-24T20:30:19.995Z,100.00
2023-01-24T20:32:55.377Z,100.00
2023-01-24T20:35:47.926Z,100.00
2023-01-24T20:38:25.909Z,100.00
2023-01-24T20:41:10.411Z,100.00
2023-01-24T20:43:52.406Z,100.00
2023-01-24T20:46:29.229Z,100.00
2023-01-24T20:49:08.051Z,100.00
2023-01-24T20:51:48.335Z,100.00
2023-01-24T20:54:28.909Z,100.00
2023-01-24T20:57:06.491Z,100.00
2023-01-24T20:59:49.845Z,100.00
2023-01-24T21:02:30.468Z,100.00
2023-01-24T21:05:10.798Z,100.00
2023-01-24T21:08:00.088Z,100.00
2023-01-24T21:10:38.471Z,100.00
2023-01-24T21:13:35.808Z,100.00
2023-01-24T21:16:31.009Z,100.00
2023-01-24T21:19:13.715Z,100.00
2023-01-24T21:21:54.399Z,100.00
2023-01-24T21:24:34.962Z,100.00
2023-01-24T21:27:13.297Z,100.00
2023-01-24T21:29:48.208Z,100.00
2023-01-24T21:32:23.373Z,100.00
2023-01-24T21:35:04.246Z,100.00
2023-01-24T21:37:44.832Z,100.00
2023-01-24T21:40:25.429Z,100.00
2023-01-24T21:43:27.315Z,100.00
2023-01-24T21:46:10.877Z,100.00
2023-01-24T21:49:04.652Z,100.00
2023-01-24T21:51:40.948Z,100.00
2023-01-24T21:54:38.962Z,100.00
2023-01-24T21:57:32.610Z,100.00
2023-01-24T22:00:15.217Z,100.00
2023-01-24T22:05:55.617Z,100.00
2023-01-24T22:08:37.682Z,100.00
2023-01-24T22:11:29.802Z,100.00
2023-01-24T22:14:20.562Z,100.00
2023-01-24T22:17:02.475Z,100.00
2023-01-24T22:19:52.718Z,100.00
2023-01-24T22:22:56.907Z,100.00
2023-01-24T22:25:44.655Z,100.00
2023-01-24T22:28:28.324Z,100.00
2023-01-24T22:31:06.298Z,100.00
2023-01-24T22:33:41.840Z,100.00
2023-01-24T22:36:15.157Z,100.00
2023-01-24T22:38:51.041Z,100.00
2023-01-24T22:41:37.521Z,100.00
2023-01-24T22:44:14.955Z,100.00
2023-01-24T22:46:52.001Z,100.00
2023-01-24T22:49:24.876Z,100.00
2023-01-24T22:52:05.171Z,100.00
2023-01-24T22:54:40.644Z,100.00
2023-01-24T22:57:18.216Z,100.00
2023-01-24T23:00:05.352Z,100.00
2023-01-24T23:02:43.686Z,100.00
2023-01-24T23:05:24.719Z,100.00
2023-01-24T23:08:03.941Z,100.00
2023-01-24T23:10:41.787Z,100.00
2023-01-24T23:13:39.938Z,100.00
2023-01-24T23:16:24.098Z,100.00
2023-01-24T23:19:26.154Z,100.00
2023-01-24T23:22:09.566Z,100.00
2023-01-24T23:24:48.899Z,100.00
2023-01-24T23:27:26.950Z,100.00
2023-01-24T23:30:20.220Z,100.00
2023-01-24T23:33:30.013Z,100.00
2023-01-24T23:36:08.815Z,100.00
2023-01-24T23:38:47.349Z,100.00
2023-01-24T23:41:22.057Z,100.00
2023-01-24T23:43:56.128Z,100.00
2023-01-24T23:46:33.863Z,100.00
2023-01-24T23:49:09.938Z,100.00
2023-01-24T23:51:47.021Z,100.00
2023-01-24T23:54:22.170Z,100.00
2023-01-24T23:56:57.779Z,100.00
2023-01-24T23:59:33.116Z,100.00
